sensor_id;sensor_type;location;lat;lon;timestamp;pressure;altitude;pressure_sealevel;temperature;humidity
9421;BME280;4749;51.398;5.466;2022-08-30T00:01:27;101804.75;;;17.84;100.00
9421;BME280;4749;51.398;5.466;2022-08-30T00:03:56;101802.97;;;17.84;100.00
9421;BME280;4749;51.398;5.466;2022-08-30T00:06:29;101798.50;;;17.86;100.00
9421;BME280;4749;51.398;5.466;2022-08-30T00:08:56;101807.47;;;17.78;100.00
9421;BME280;4749;51.398;5.466;2022-08-30T00:11:26;101813.75;;;17.72;100.00
9421;BME280;4749;51.398;5.466;2022-08-30T00:13:55;101805.75;;;17.75;100.00
9421;BME280;4749;51.398;5.466;2022-08-30T00:16:24;101808.41;;;17.73;100.00
9421;BME280;4749;51.398;5.466;2022-08-30T00:18:52;101816.47;;;17.66;100.00
9421;BME280;4749;51.398;5.466;2022-08-30T00:21:21;101818.31;;;17.58;100.00
9421;BME280;4749;51.398;5.466;2022-08-30T00:23:48;101816.50;;;17.61;100.00
9421;BME280;4749;51.398;5.466;2022-08-30T00:26:15;101810.34;;;17.58;100.00
9421;BME280;4749;51.398;5.466;2022-08-30T00:28:42;101814.78;;;17.57;100.00
9421;BME280;4749;51.398;5.466;2022-08-30T00:31:09;101810.41;;;17.52;100.00
9421;BME280;4749;51.398;5.466;2022-08-30T00:33:41;101815.75;;;17.50;100.00
9421;BME280;4749;51.398;5.466;2022-08-30T00:36:08;101822.84;;;17.50;100.00
9421;BME280;4749;51.398;5.466;2022-08-30T00:38:35;101821.91;;;17.52;100.00
9421;BME280;4749;51.398;5.466;2022-08-30T00:41:02;101819.22;;;17.55;100.00
9421;BME280;4749;51.398;5.466;2022-08-30T00:43:32;101821.84;;;17.57;100.00
9421;BME280;4749;51.398;5.466;2022-08-30T00:46:04;101828.06;;;17.59;100.00
9421;BME280;4749;51.398;5.466;2022-08-30T00:48:38;101814.72;;;17.62;100.00
9421;BME280;4749;51.398;5.466;2022-08-30T00:51:09;101811.97;;;17.69;100.00
9421;BME280;4749;51.398;5.466;2022-08-30T00:53:41;101815.53;;;17.70;100.00
9421;BME280;4749;51.398;5.466;2022-08-30T00:56:09;101813.69;;;17.77;100.00
9421;BME280;4749;51.398;5.466;2022-08-30T00:58:43;101806.63;;;17.72;100.00
9421;BME280;4749;51.398;5.466;2022-08-30T01:01:11;101813.78;;;17.67;100.00
9421;BME280;4749;51.398;5.466;2022-08-30T01:03:39;101819.97;;;17.71;100.00
9421;BME280;4749;51.398;5.466;2022-08-30T01:06:07;101825.25;;;17.76;100.00
9421;BME280;4749;51.398;5.466;2022-08-30T01:08:34;101819.06;;;17.72;100.00
9421;BME280;4749;51.398;5.466;2022-08-30T01:11:02;101834.16;;;17.65;100.00
9421;BME280;4749;51.398;5.466;2022-08-30T01:13:31;101820.91;;;17.64;100.00
9421;BME280;4749;51.398;5.466;2022-08-30T01:15:58;101826.22;;;17.64;100.00
9421;BME280;4749;51.398;5.466;2022-08-30T01:18:28;101826.28;;;17.59;100.00
9421;BME280;4749;51.398;5.466;2022-08-30T01:21:16;101834.28;;;17.58;100.00
9421;BME280;4749;51.398;5.466;2022-08-30T01:23:49;101825.50;;;17.47;100.00
9421;BME280;4749;51.398;5.466;2022-08-30T01:26:17;101825.50;;;17.48;100.00
9421;BME280;4749;51.398;5.466;2022-08-30T01:28:52;101831.81;;;17.36;100.00
9421;BME280;4749;51.398;5.466;2022-08-30T01:31:21;101828.34;;;17.28;100.00
9421;BME280;4749;51.398;5.466;2022-08-30T01:33:48;101831.88;;;17.33;100.00
9421;BME280;4749;51.398;5.466;2022-08-30T01:36:18;101826.53;;;17.35;100.00
9421;BME280;4749;51.398;5.466;2022-08-30T01:38:54;101831.88;;;17.29;100.00
9421;BME280;4749;51.398;5.466;2022-08-30T01:41:35;101829.28;;;17.26;100.00
9421;BME280;4749;51.398;5.466;2022-08-30T01:44:07;101830.16;;;17.26;100.00
9421;BME280;4749;51.398;5.466;2022-08-30T01:46:42;101826.63;;;17.24;100.00
9421;BME280;4749;51.398;5.466;2022-08-30T01:49:14;101822.22;;;17.22;100.00
9421;BME280;4749;51.398;5.466;2022-08-30T01:51:42;101819.56;;;17.20;100.00
9421;BME280;4749;51.398;5.466;2022-08-30T01:54:10;101819.59;;;17.17;100.00
9421;BME280;4749;51.398;5.466;2022-08-30T01:56:37;101820.50;;;17.14;100.00
9421;BME280;4749;51.398;5.466;2022-08-30T01:59:04;101821.38;;;17.15;100.00
9421;BME280;4749;51.398;5.466;2022-08-30T02:01:34;101816.16;;;17.04;100.00
9421;BME280;4749;51.398;5.466;2022-08-30T02:04:04;101819.69;;;17.05;100.00
9421;BME280;4749;51.398;5.466;2022-08-30T02:06:32;101824.13;;;17.06;100.00
9421;BME280;4749;51.398;5.466;2022-08-30T02:08:59;101819.69;;;17.09;100.00
9421;BME280;4749;51.398;5.466;2022-08-30T02:11:27;101820.59;;;17.05;100.00
9421;BME280;4749;51.398;5.466;2022-08-30T02:13:54;101825.03;;;17.03;100.00
9421;BME280;4749;51.398;5.466;2022-08-30T02:16:23;101819.75;;;17.00;100.00
9421;BME280;4749;51.398;5.466;2022-08-30T02:18:52;101816.13;;;17.09;100.00
9421;BME280;4749;51.398;5.466;2022-08-30T02:21:20;101810.78;;;17.12;100.00
9421;BME280;4749;51.398;5.466;2022-08-30T02:23:47;101802.84;;;17.09;100.00
9421;BME280;4749;51.398;5.466;2022-08-30T02:26:16;101806.38;;;17.11;100.00
9421;BME280;4749;51.398;5.466;2022-08-30T02:28:44;101808.19;;;17.06;100.00
9421;BME280;4749;51.398;5.466;2022-08-30T02:31:18;101809.16;;;16.99;100.00
9421;BME280;4749;51.398;5.466;2022-08-30T02:33:49;101809.13;;;17.00;100.00
9421;BME280;4749;51.398;5.466;2022-08-30T02:36:18;101805.56;;;17.01;100.00
9421;BME280;4749;51.398;5.466;2022-08-30T02:38:48;101810.03;;;16.99;100.00
9421;BME280;4749;51.398;5.466;2022-08-30T02:41:17;101814.47;;;16.99;100.00
9421;BME280;4749;51.398;5.466;2022-08-30T02:43:44;101811.81;;;16.96;100.00
9421;BME280;4749;51.398;5.466;2022-08-30T02:46:11;101806.47;;;17.00;100.00
9421;BME280;4749;51.398;5.466;2022-08-30T02:48:39;101804.72;;;16.96;100.00
9421;BME280;4749;51.398;5.466;2022-08-30T02:51:09;101799.44;;;16.95;100.00
9421;BME280;4749;51.398;5.466;2022-08-30T02:53:39;101802.13;;;16.88;100.00
9421;BME280;4749;51.398;5.466;2022-08-30T02:56:07;101807.44;;;16.88;100.00
9421;BME280;4749;51.398;5.466;2022-08-30T02:58:35;101801.28;;;16.86;100.00
9421;BME280;4749;51.398;5.466;2022-08-30T03:01:03;101803.97;;;16.83;100.00
9421;BME280;4749;51.398;5.466;2022-08-30T03:03:31;101798.56;;;16.93;100.00
9421;BME280;4749;51.398;5.466;2022-08-30T03:05:59;101803.03;;;16.87;100.00
9421;BME280;4749;51.398;5.466;2022-08-30T03:08:29;101808.38;;;16.81;100.00
9421;BME280;4749;51.398;5.466;2022-08-30T03:10:59;101799.53;;;16.82;100.00
9421;BME280;4749;51.398;5.466;2022-08-30T03:13:26;101798.59;;;16.86;100.00
9421;BME280;4749;51.398;5.466;2022-08-30T03:15:53;101797.78;;;16.83;100.00
9421;BME280;4749;51.398;5.466;2022-08-30T03:18:21;101787.16;;;16.80;100.00
9421;BME280;4749;51.398;5.466;2022-08-30T03:20:50;101795.13;;;16.78;100.00
9421;BME280;4749;51.398;5.466;2022-08-30T03:23:21;101800.44;;;16.78;100.00
9421;BME280;4749;51.398;5.466;2022-08-30T03:25:50;101794.31;;;16.73;100.00
9421;BME280;4749;51.398;5.466;2022-08-30T03:28:17;101795.19;;;16.74;100.00
9421;BME280;4749;51.398;5.466;2022-08-30T03:30:44;101799.63;;;16.69;100.00
9421;BME280;4749;51.398;5.466;2022-08-30T03:33:12;101799.59;;;16.75;100.00
9421;BME280;4749;51.398;5.466;2022-08-30T03:35:39;101795.19;;;16.68;100.00
9421;BME280;4749;51.398;5.466;2022-08-30T03:38:06;101797.84;;;16.68;100.00
9421;BME280;4749;51.398;5.466;2022-08-30T03:40:34;101798.75;;;16.65;100.00
9421;BME280;4749;51.398;5.466;2022-08-30T03:43:02;101792.56;;;16.69;100.00
9421;BME280;4749;51.398;5.466;2022-08-30T03:45:31;101793.44;;;16.62;100.00
9421;BME280;4749;51.398;5.466;2022-08-30T03:47:58;101793.50;;;16.59;100.00
9421;BME280;4749;51.398;5.466;2022-08-30T03:50:28;101795.22;;;16.61;100.00
9421;BME280;4749;51.398;5.466;2022-08-30T03:52:56;101794.44;;;16.49;100.00
9421;BME280;4749;51.398;5.466;2022-08-30T03:55:27;101797.09;;;16.50;100.00
9421;BME280;4749;51.398;5.466;2022-08-30T03:57:56;101795.31;;;16.48;100.00
9421;BME280;4749;51.398;5.466;2022-08-30T04:00:23;101794.44;;;16.47;100.00
9421;BME280;4749;51.398;5.466;2022-08-30T04:02:51;101805.09;;;16.44;100.00
9421;BME280;4749;51.398;5.466;2022-08-30T04:05:19;101796.22;;;16.47;100.00
9421;BME280;4749;51.398;5.466;2022-08-30T04:07:46;101805.97;;;16.43;100.00
9421;BME280;4749;51.398;5.466;2022-08-30T04:10:13;101798.88;;;16.45;100.00
9421;BME280;4749;51.398;5.466;2022-08-30T04:12:40;101808.63;;;16.43;100.00
9421;BME280;4749;51.398;5.466;2022-08-30T04:15:13;101803.28;;;16.46;100.00
9421;BME280;4749;51.398;5.466;2022-08-30T04:17:41;101803.28;;;16.46;100.00
9421;BME280;4749;51.398;5.466;2022-08-30T04:20:09;101803.31;;;16.45;100.00
9421;BME280;4749;51.398;5.466;2022-08-30T04:22:36;101806.84;;;16.45;100.00
9421;BME280;4749;51.398;5.466;2022-08-30T04:25:05;101805.06;;;16.47;100.00
9421;BME280;4749;51.398;5.466;2022-08-30T04:27:32;101800.63;;;16.46;100.00
9421;BME280;4749;51.398;5.466;2022-08-30T04:29:59;101797.16;;;16.41;100.00
9421;BME280;4749;51.398;5.466;2022-08-30T04:32:27;101800.69;;;16.39;100.00
9421;BME280;4749;51.398;5.466;2022-08-30T04:34:58;101802.47;;;16.38;100.00
9421;BME280;4749;51.398;5.466;2022-08-30T04:37:25;101806.06;;;16.32;100.00
9421;BME280;4749;51.398;5.466;2022-08-30T04:39:57;101812.22;;;16.36;100.00
9421;BME280;4749;51.398;5.466;2022-08-30T04:42:27;101819.31;;;16.29;100.00
9421;BME280;4749;51.398;5.466;2022-08-30T04:45:00;101815.75;;;16.37;100.00
9421;BME280;4749;51.398;5.466;2022-08-30T04:47:27;101821.97;;;16.32;100.00
9421;BME280;4749;51.398;5.466;2022-08-30T04:49:55;101816.66;;;16.31;100.00
9421;BME280;4749;51.398;5.466;2022-08-30T04:52:22;101820.22;;;16.27;100.00
9421;BME280;4749;51.398;5.466;2022-08-30T04:54:57;101816.72;;;16.20;100.00
9421;BME280;4749;51.398;5.466;2022-08-30T04:57:25;101818.47;;;16.21;100.00
9421;BME280;4749;51.398;5.466;2022-08-30T04:59:53;101825.53;;;16.25;100.00
9421;BME280;4749;51.398;5.466;2022-08-30T05:02:21;101825.53;;;16.22;100.00
9421;BME280;4749;51.398;5.466;2022-08-30T05:04:48;101819.31;;;16.28;100.00
9421;BME280;4749;51.398;5.466;2022-08-30T05:07:34;101829.94;;;16.28;100.00
9421;BME280;4749;51.398;5.466;2022-08-30T05:10:02;101826.41;;;16.27;100.00
9421;BME280;4749;51.398;5.466;2022-08-30T05:12:36;101831.75;;;16.18;100.00
9421;BME280;4749;51.398;5.466;2022-08-30T05:15:04;101823.78;;;16.21;100.00
9421;BME280;4749;51.398;5.466;2022-08-30T05:17:31;101825.56;;;16.21;100.00
9421;BME280;4749;51.398;5.466;2022-08-30T05:20:01;101840.63;;;16.13;100.00
9421;BME280;4749;51.398;5.466;2022-08-30T05:22:28;101831.78;;;16.14;100.00
9421;BME280;4749;51.398;5.466;2022-08-30T05:24:55;101837.94;;;16.25;100.00
9421;BME280;4749;51.398;5.466;2022-08-30T05:27:22;101837.94;;;16.23;100.00
9421;BME280;4749;51.398;5.466;2022-08-30T05:29:49;101836.16;;;16.27;100.00
9421;BME280;4749;51.398;5.466;2022-08-30T05:32:16;101834.41;;;16.24;100.00
9421;BME280;4749;51.398;5.466;2022-08-30T05:34:44;101832.56;;;16.36;100.00
9421;BME280;4749;51.398;5.466;2022-08-30T05:37:11;101835.13;;;16.46;100.00
9421;BME280;4749;51.398;5.466;2022-08-30T05:39:38;101843.94;;;16.57;100.00
9421;BME280;4749;51.398;5.466;2022-08-30T05:42:18;101846.59;;;16.54;100.00
9421;BME280;4749;51.398;5.466;2022-08-30T05:44:45;101851.88;;;16.56;100.00
9421;BME280;4749;51.398;5.466;2022-08-30T05:47:16;101847.41;;;16.70;100.00
9421;BME280;4749;51.398;5.466;2022-08-30T05:49:43;101841.22;;;16.67;100.00
9421;BME280;4749;51.398;5.466;2022-08-30T05:52:10;101847.25;;;16.93;100.00
9421;BME280;4749;51.398;5.466;2022-08-30T05:54:38;101849.06;;;16.86;100.00
9421;BME280;4749;51.398;5.466;2022-08-30T05:57:05;101841.22;;;16.74;100.00
9421;BME280;4749;51.398;5.466;2022-08-30T05:59:33;101838.53;;;16.76;100.00
9421;BME280;4749;51.398;5.466;2022-08-30T06:02:00;101848.28;;;16.75;100.00
9421;BME280;4749;51.398;5.466;2022-08-30T06:04:27;101838.44;;;16.88;100.00
9421;BME280;4749;51.398;5.466;2022-08-30T06:06:54;101837.56;;;16.87;100.00
9421;BME280;4749;51.398;5.466;2022-08-30T06:09:21;101839.31;;;16.88;100.00
9421;BME280;4749;51.398;5.466;2022-08-30T06:11:48;101842.72;;;17.06;100.00
9421;BME280;4749;51.398;5.466;2022-08-30T06:14:15;101850.78;;;16.94;100.00
9421;BME280;4749;51.398;5.466;2022-08-30T06:16:43;101846.25;;;17.08;100.00
9421;BME280;4749;51.398;5.466;2022-08-30T06:19:13;101851.41;;;17.26;100.00
9421;BME280;4749;51.398;5.466;2022-08-30T06:21:42;101846.06;;;17.29;100.00
9421;BME280;4749;51.398;5.466;2022-08-30T06:24:10;101855.72;;;17.38;100.00
9421;BME280;4749;51.398;5.466;2022-08-30T06:26:41;101843.41;;;17.32;100.00
9421;BME280;4749;51.398;5.466;2022-08-30T06:29:13;101854.81;;;17.42;100.00
9421;BME280;4749;51.398;5.466;2022-08-30T06:31:40;101849.50;;;17.39;100.00
9421;BME280;4749;51.398;5.466;2022-08-30T06:34:08;101846.03;;;17.34;100.00
9421;BME280;4749;51.398;5.466;2022-08-30T06:36:35;101850.25;;;17.55;100.00
9421;BME280;4749;51.398;5.466;2022-08-30T06:39:03;101844.09;;;17.51;100.00
9421;BME280;4749;51.398;5.466;2022-08-30T06:41:36;101847.50;;;17.62;100.00
9421;BME280;4749;51.398;5.466;2022-08-30T06:44:04;101848.59;;;17.43;100.00
9421;BME280;4749;51.398;5.466;2022-08-30T06:46:35;101852.31;;;17.25;100.00
9421;BME280;4749;51.398;5.466;2022-08-30T06:49:04;101846.78;;;17.45;100.00
9421;BME280;4749;51.398;5.466;2022-08-30T06:51:36;101845.75;;;17.61;100.00
9421;BME280;4749;51.398;5.466;2022-08-30T06:54:06;101844.91;;;17.58;100.00
9421;BME280;4749;51.398;5.466;2022-08-30T06:56:39;101846.66;;;17.60;100.00
9421;BME280;4749;51.398;5.466;2022-08-30T06:59:24;101854.44;;;17.80;100.00
9421;BME280;4749;51.398;5.466;2022-08-30T07:01:53;101852.50;;;17.94;100.00
9421;BME280;4749;51.398;5.466;2022-08-30T07:04:21;101853.19;;;18.10;100.00
9421;BME280;4749;51.398;5.466;2022-08-30T07:06:48;101847.06;;;18.04;100.00
9421;BME280;4749;51.398;5.466;2022-08-30T07:09:15;101841.50;;;18.25;100.00
9421;BME280;4749;51.398;5.466;2022-08-30T07:11:43;101844.91;;;18.32;100.00
9421;BME280;4749;51.398;5.466;2022-08-30T07:14:10;101848.22;;;18.49;100.00
9421;BME280;4749;51.398;5.466;2022-08-30T07:16:37;101846.22;;;18.66;100.00
9421;BME280;4749;51.398;5.466;2022-08-30T07:19:05;101844.00;;;18.36;100.00
9421;BME280;4749;51.398;5.466;2022-08-30T07:21:41;101848.91;;;18.66;100.00
9421;BME280;4749;51.398;5.466;2022-08-30T07:24:12;101852.13;;;18.88;100.00
9421;BME280;4749;51.398;5.466;2022-08-30T07:26:43;101848.63;;;18.86;100.00
9421;BME280;4749;51.398;5.466;2022-08-30T07:29:13;101850.31;;;18.90;100.00
9421;BME280;4749;51.398;5.466;2022-08-30T07:31:41;101854.31;;;19.16;100.00
9421;BME280;4749;51.398;5.466;2022-08-30T07:34:09;101849.88;;;19.16;100.00
9421;BME280;4749;51.398;5.466;2022-08-30T07:36:38;101840.97;;;19.19;100.00
9421;BME280;4749;51.398;5.466;2022-08-30T07:39:07;101848.88;;;19.23;100.00
9421;BME280;4749;51.398;5.466;2022-08-30T07:41:38;101860.09;;;19.44;100.00
9421;BME280;4749;51.398;5.466;2022-08-30T07:44:06;101852.38;;;19.78;100.00
9421;BME280;4749;51.398;5.466;2022-08-30T07:46:36;101852.56;;;20.12;100.00
9421;BME280;4749;51.398;5.466;2022-08-30T07:49:04;101845.44;;;19.67;100.00
9421;BME280;4749;51.398;5.466;2022-08-30T07:51:38;101849.22;;;19.54;100.00
9421;BME280;4749;51.398;5.466;2022-08-30T07:54:06;101851.50;;;19.76;100.00
9421;BME280;4749;51.398;5.466;2022-08-30T07:56:33;101859.75;;;19.63;100.00
9421;BME280;4749;51.398;5.466;2022-08-30T07:59:01;101861.44;;;19.69;100.00
9421;BME280;4749;51.398;5.466;2022-08-30T08:01:28;101850.59;;;19.77;100.00
9421;BME280;4749;51.398;5.466;2022-08-30T08:03:55;101857.28;;;19.98;100.00
9421;BME280;4749;51.398;5.466;2022-08-30T08:06:23;101854.53;;;20.02;100.00
9421;BME280;4749;51.398;5.466;2022-08-30T08:08:50;101850.16;;;20.40;100.00
9421;BME280;4749;51.398;5.466;2022-08-30T08:11:24;101859.66;;;20.55;100.00
9421;BME280;4749;51.398;5.466;2022-08-30T08:13:57;101866.25;;;20.78;100.00
9421;BME280;4749;51.398;5.466;2022-08-30T08:16:30;101859.13;;;20.37;100.00
9421;BME280;4749;51.398;5.466;2022-08-30T08:18:58;101856.84;;;20.61;100.00
9421;BME280;4749;51.398;5.466;2022-08-30T08:21:25;101858.13;;;20.44;100.00
9421;BME280;4749;51.398;5.466;2022-08-30T08:23:53;101859.09;;;20.79;100.00
9421;BME280;4749;51.398;5.466;2022-08-30T08:26:21;101864.97;;;20.93;100.00
9421;BME280;4749;51.398;5.466;2022-08-30T08:28:48;101862.09;;;21.02;100.00
9421;BME280;4749;51.398;5.466;2022-08-30T08:31:21;101862.75;;;21.12;100.00
9421;BME280;4749;51.398;5.466;2022-08-30T08:33:55;101869.81;;;20.77;100.00
9421;BME280;4749;51.398;5.466;2022-08-30T08:36:22;101871.59;;;20.78;100.00
9421;BME280;4749;51.398;5.466;2022-08-30T08:38:49;101872.38;;;20.82;100.00
9421;BME280;4749;51.398;5.466;2022-08-30T08:42:06;101873.91;;;20.94;100.00
9421;BME280;4749;51.398;5.466;2022-08-30T08:45:03;101880.72;;;21.05;100.00
9421;BME280;4749;51.398;5.466;2022-08-30T08:48:24;101873.47;;;21.11;100.00
9421;BME280;4749;51.398;5.466;2022-08-30T08:51:18;101874.38;;;21.09;100.00
9421;BME280;4749;51.398;5.466;2022-08-30T08:54:35;101878.94;;;21.42;100.00
9421;BME280;4749;51.398;5.466;2022-08-30T08:56:59;101872.38;;;21.18;100.00
9421;BME280;4749;51.398;5.466;2022-08-30T08:59:26;101874.84;;;21.28;100.00
9421;BME280;4749;51.398;5.466;2022-08-30T09:01:58;101878.91;;;21.43;100.00
9421;BME280;4749;51.398;5.466;2022-08-30T09:04:35;101879.72;;;21.47;100.00
9421;BME280;4749;51.398;5.466;2022-08-30T09:07:23;101880.63;;;21.46;100.00
9421;BME280;4749;51.398;5.466;2022-08-30T09:09:51;101886.94;;;21.76;100.00
9421;BME280;4749;51.398;5.466;2022-08-30T09:12:19;101887.97;;;21.72;100.00
9421;BME280;4749;51.398;5.466;2022-08-30T09:14:55;101876.31;;;22.05;100.00
9421;BME280;4749;51.398;5.466;2022-08-30T09:17:24;101887.41;;;22.24;100.00
9421;BME280;4749;51.398;5.466;2022-08-30T09:27:39;101901.66;;;22.25;100.00
9421;BME280;4749;51.398;5.466;2022-08-30T09:33:04;101885.38;;;22.32;100.00
9421;BME280;4749;51.398;5.466;2022-08-30T09:35:50;101875.13;;;22.74;100.00
9421;BME280;4749;51.398;5.466;2022-08-30T09:38:29;101879.88;;;22.94;100.00
9421;BME280;4749;51.398;5.466;2022-08-30T09:41:01;101883.44;;;22.37;100.00
9421;BME280;4749;51.398;5.466;2022-08-30T09:44:17;101876.19;;;22.69;100.00
9421;BME280;4749;51.398;5.466;2022-08-30T09:46:55;101877.94;;;22.70;100.00
9421;BME280;4749;51.398;5.466;2022-08-30T09:49:35;101879.31;;;22.55;100.00
9421;BME280;4749;51.398;5.466;2022-08-30T09:52:39;101894.09;;;22.98;100.00
9421;BME280;4749;51.398;5.466;2022-08-30T09:58:36;101895.66;;;23.03;100.00
9421;BME280;4749;51.398;5.466;2022-08-30T10:01:38;101893.84;;;23.06;100.00
9421;BME280;4749;51.398;5.466;2022-08-30T10:07:09;101893.28;;;22.96;100.00
9421;BME280;4749;51.398;5.466;2022-08-30T10:19:12;101894.97;;;23.51;100.00
9421;BME280;4749;51.398;5.466;2022-08-30T10:21:53;101877.31;;;23.44;100.00
9421;BME280;4749;51.398;5.466;2022-08-30T10:24:49;101889.91;;;23.69;100.00
9421;BME280;4749;51.398;5.466;2022-08-30T10:27:25;101882.59;;;23.74;100.00
9421;BME280;4749;51.398;5.466;2022-08-30T10:30:09;101897.16;;;23.92;100.00
9421;BME280;4749;51.398;5.466;2022-08-30T10:33:20;101878.22;;;23.95;100.00
9421;BME280;4749;51.398;5.466;2022-08-30T10:35:49;101887.19;;;24.19;100.00
9421;BME280;4749;51.398;5.466;2022-08-30T10:38:39;101890.50;;;24.02;100.00
9421;BME280;4749;51.398;5.466;2022-08-30T10:41:35;101880.63;;;24.51;100.00
9421;BME280;4749;51.398;5.466;2022-08-30T10:49:56;101879.28;;;24.84;100.00
9421;BME280;4749;51.398;5.466;2022-08-30T10:56:15;101886.63;;;24.57;100.00
9421;BME280;4749;51.398;5.466;2022-08-30T10:58:46;101876.19;;;24.50;100.00
9421;BME280;4749;51.398;5.466;2022-08-30T11:13:47;101875.56;;;24.87;100.00
9421;BME280;4749;51.398;5.466;2022-08-30T11:16:17;101871.25;;;25.26;100.00
9421;BME280;4749;51.398;5.466;2022-08-30T11:18:57;101870.66;;;24.98;100.00
9421;BME280;4749;51.398;5.466;2022-08-30T11:24:07;101873.72;;;25.11;100.00
9421;BME280;4749;51.398;5.466;2022-08-30T11:31:59;101878.78;;;25.18;100.00
9421;BME280;4749;51.398;5.466;2022-08-30T11:37:41;101866.44;;;25.13;100.00
9421;BME280;4749;51.398;5.466;2022-08-30T11:57:56;101853.91;;;25.34;100.00
9421;BME280;4749;51.398;5.466;2022-08-30T12:00:39;101846.34;;;25.21;100.00
9421;BME280;4749;51.398;5.466;2022-08-30T12:05:57;101840.34;;;24.93;100.00
9421;BME280;4749;51.398;5.466;2022-08-30T12:14:04;101834.47;;;25.27;100.00
9421;BME280;4749;51.398;5.466;2022-08-30T12:16:54;101832.03;;;24.77;100.00
9421;BME280;4749;51.398;5.466;2022-08-30T12:19:42;101834.78;;;25.19;100.00
9421;BME280;4749;51.398;5.466;2022-08-30T12:22:17;101849.13;;;25.20;100.00
9421;BME280;4749;51.398;5.466;2022-08-30T12:24:50;101838.66;;;25.12;100.00
9421;BME280;4749;51.398;5.466;2022-08-30T12:27:30;101840.56;;;25.31;100.00
9421;BME280;4749;51.398;5.466;2022-08-30T12:30:03;101833.50;;;25.08;100.00
9421;BME280;4749;51.398;5.466;2022-08-30T12:32:32;101841.84;;;25.63;100.00
9421;BME280;4749;51.398;5.466;2022-08-30T12:35:04;101848.56;;;25.74;96.84
9421;BME280;4749;51.398;5.466;2022-08-30T12:37:38;101830.91;;;25.26;100.00
9421;BME280;4749;51.398;5.466;2022-08-30T12:40:15;101848.59;;;25.52;97.61
9421;BME280;4749;51.398;5.466;2022-08-30T12:43:03;101834.59;;;25.85;94.53
9421;BME280;4749;51.398;5.466;2022-08-30T12:45:37;101838.09;;;25.87;94.35
9421;BME280;4749;51.398;5.466;2022-08-30T12:48:14;101839.91;;;25.66;91.21
9421;BME280;4749;51.398;5.466;2022-08-30T12:50:50;101833.66;;;25.45;93.54
9421;BME280;4749;51.398;5.466;2022-08-30T12:53:38;101830.13;;;25.64;92.21
9421;BME280;4749;51.398;5.466;2022-08-30T12:56:16;101823.56;;;25.91;92.04
9421;BME280;4749;51.398;5.466;2022-08-30T12:59:04;101820.59;;;25.77;89.83
9421;BME280;4749;51.398;5.466;2022-08-30T13:01:34;101826.78;;;26.18;85.36
9421;BME280;4749;51.398;5.466;2022-08-30T13:04:22;101827.03;;;26.51;82.46
9421;BME280;4749;51.398;5.466;2022-08-30T13:06:58;101822.19;;;26.20;83.66
9421;BME280;4749;51.398;5.466;2022-08-30T13:12:12;101834.34;;;26.10;77.44
9421;BME280;4749;51.398;5.466;2022-08-30T13:14:46;101814.34;;;26.16;82.18
9421;BME280;4749;51.398;5.466;2022-08-30T13:17:24;101816.34;;;25.92;83.40
9421;BME280;4749;51.398;5.466;2022-08-30T13:22:31;101808.19;;;25.93;83.68
9421;BME280;4749;51.398;5.466;2022-08-30T13:24:59;101809.81;;;26.16;80.21
9421;BME280;4749;51.398;5.466;2022-08-30T13:27:28;101808.34;;;26.28;75.90
9421;BME280;4749;51.398;5.466;2022-08-30T13:29:56;101804.03;;;25.86;78.97
9421;BME280;4749;51.398;5.466;2022-08-30T13:32:23;101799.84;;;25.99;80.33
9421;BME280;4749;51.398;5.466;2022-08-30T13:34:51;101796.63;;;25.91;78.40
9421;BME280;4749;51.398;5.466;2022-08-30T13:37:22;101793.41;;;26.02;76.97
9421;BME280;4749;51.398;5.466;2022-08-30T13:40:14;101797.69;;;26.06;78.47
9421;BME280;4749;51.398;5.466;2022-08-30T13:42:41;101782.56;;;25.85;76.33
9421;BME280;4749;51.398;5.466;2022-08-30T13:45:10;101788.22;;;25.78;80.04
9421;BME280;4749;51.398;5.466;2022-08-30T13:47:59;101780.69;;;25.66;81.29
9421;BME280;4749;51.398;5.466;2022-08-30T13:50:27;101786.38;;;25.79;80.48
9421;BME280;4749;51.398;5.466;2022-08-30T13:52:56;101782.56;;;25.85;78.78
9421;BME280;4749;51.398;5.466;2022-08-30T13:55:23;101782.50;;;26.24;78.64
9421;BME280;4749;51.398;5.466;2022-08-30T13:57:50;101776.38;;;26.39;76.60
9421;BME280;4749;51.398;5.466;2022-08-30T14:00:20;101779.66;;;26.27;77.92
9421;BME280;4749;51.398;5.466;2022-08-30T14:02:49;101774.56;;;26.02;74.54
9421;BME280;4749;51.398;5.466;2022-08-30T14:05:36;101773.31;;;26.28;72.07
9421;BME280;4749;51.398;5.466;2022-08-30T14:08:28;101779.72;;;26.98;68.88
9421;BME280;4749;51.398;5.466;2022-08-30T14:11:19;101766.13;;;26.64;69.55
9421;BME280;4749;51.398;5.466;2022-08-30T14:13:49;101776.06;;;26.81;69.74
9421;BME280;4749;51.398;5.466;2022-08-30T14:16:42;101774.84;;;26.33;67.73
9421;BME280;4749;51.398;5.466;2022-08-30T14:19:13;101771.19;;;26.34;69.01
9421;BME280;4749;51.398;5.466;2022-08-30T14:21:41;101758.44;;;26.19;72.36
9421;BME280;4749;51.398;5.466;2022-08-30T14:24:10;101761.28;;;26.54;71.97
9421;BME280;4749;51.398;5.466;2022-08-30T14:26:47;101771.41;;;27.02;66.87
9421;BME280;4749;51.398;5.466;2022-08-30T14:29:19;101765.28;;;26.81;67.65
9421;BME280;4749;51.398;5.466;2022-08-30T14:31:47;101765.97;;;26.50;68.95
9421;BME280;4749;51.398;5.466;2022-08-30T14:34:15;101761.34;;;26.52;69.70
9421;BME280;4749;51.398;5.466;2022-08-30T14:36:44;101755.09;;;26.52;69.46
9421;BME280;4749;51.398;5.466;2022-08-30T14:39:17;101758.84;;;26.67;67.36
9421;BME280;4749;51.398;5.466;2022-08-30T14:41:50;101757.00;;;27.20;68.46
9421;BME280;4749;51.398;5.466;2022-08-30T14:44:19;101756.91;;;27.05;65.66
9421;BME280;4749;51.398;5.466;2022-08-30T14:46:47;101754.59;;;27.14;67.92
9421;BME280;4749;51.398;5.466;2022-08-30T14:49:17;101761.00;;;26.94;64.16
9421;BME280;4749;51.398;5.466;2022-08-30T14:51:45;101759.00;;;27.17;65.40
9421;BME280;4749;51.398;5.466;2022-08-30T14:54:16;101745.63;;;26.43;64.47
9421;BME280;4749;51.398;5.466;2022-08-30T14:56:44;101748.97;;;26.29;67.79
9421;BME280;4749;51.398;5.466;2022-08-30T14:59:12;101748.13;;;26.65;66.63